Time;durP1;ratioP1;P1;durP2;ratioP2;P2;SDS_P1;SDS_P2;PMS_P1;PMS_P2;Temp;Humidity;BMP_temperature;BMP_pressure;BME280_temperature;BME280_humidity;BME280_pressure;Samples;Min_cycle;Max_cycle;Signal;HPM_P1;HPM_P2
2022/05/17 00:01:05;;;;;;;41.58;31.73;;;26.20;99.90;;;;;;5095203;28;20039;-62
2022/05/17 00:03:32;;;;;;;39.45;28.23;;;26.20;99.90;;;;;;5094702;28;20156;-60
2022/05/17 00:05:59;;;;;;;33.60;23.38;;;26.20;99.90;;;;;;5095730;28;20020;-63
2022/05/17 00:08:26;;;;;;;42.85;30.80;;;26.20;99.90;;;;;;5095550;28;20055;-60
2022/05/17 00:10:52;;;;;;;38.13;30.15;;;26.30;99.90;;;;;;5095615;28;20055;-61
2022/05/17 00:13:19;;;;;;;38.35;28.88;;;26.20;99.90;;;;;;5094938;28;20111;-61
2022/05/17 00:15:51;;;;;;;50.30;42.58;;;26.20;99.90;;;;;;5095315;28;20189;-63
2022/05/17 00:18:19;;;;;;;40.03;30.88;;;26.30;99.90;;;;;;5095324;28;20032;-61
2022/05/17 00:20:46;;;;;;;43.00;33.63;;;26.20;99.90;;;;;;5095398;28;20114;-61
2022/05/17 00:23:15;;;;;;;43.75;33.08;;;26.20;99.90;;;;;;5094907;28;20161;-62
2022/05/17 00:25:43;;;;;;;42.25;35.00;;;26.20;99.90;;;;;;5095304;28;20457;-61
2022/05/17 00:28:10;;;;;;;52.88;42.10;;;26.30;99.90;;;;;;5095164;28;20438;-61
2022/05/17 00:30:37;;;;;;;93.78;70.45;;;26.30;99.90;;;;;;5094474;28;20039;-60
2022/05/17 00:33:03;;;;;;;61.08;44.67;;;26.30;99.90;;;;;;5094493;28;20040;-61
2022/05/17 00:35:31;;;;;;;62.40;50.50;;;26.30;99.90;;;;;;5075816;28;20036;-61
2022/05/17 00:37:57;;;;;;;77.22;65.13;;;26.30;99.90;;;;;;5094260;28;20101;-61
2022/05/17 00:40:24;;;;;;;65.15;53.15;;;26.20;99.90;;;;;;5095507;28;20150;-61
2022/05/17 00:42:51;;;;;;;50.90;42.72;;;26.30;99.90;;;;;;5094885;28;20138;-61
2022/05/17 00:45:18;;;;;;;47.33;41.15;;;26.30;99.90;;;;;;5096372;28;20024;-61
2022/05/17 00:47:55;;;;;;;52.33;39.72;;;26.30;99.90;;;;;;5096101;28;20060;-61
2022/05/17 00:50:43;;;;;;;42.83;35.72;;;26.30;99.90;;;;;;5094068;28;20115;-61
2022/05/17 00:53:23;;;;;;;50.92;39.05;;;26.30;99.90;;;;;;5094402;28;20048;-62
2022/05/17 00:55:56;;;;;;;44.53;36.60;;;26.30;99.90;;;;;;5095784;28;20523;-61
2022/05/17 00:58:27;;;;;;;43.45;34.85;;;26.30;99.90;;;;;;5093935;28;20024;-61
2022/05/17 01:01:07;;;;;;;39.67;31.35;;;26.40;99.90;;;;;;5094781;28;20028;-61
2022/05/17 01:03:43;;;;;;;47.78;34.85;;;26.50;99.90;;;;;;5094234;28;20024;-61
2022/05/17 01:06:11;;;;;;;39.33;32.08;;;26.60;99.90;;;;;;5098596;22;20053;-61
2022/05/17 01:08:37;;;;;;;35.55;31.45;;;26.60;99.90;;;;;;5073672;28;20025;-61
2022/05/17 01:11:04;;;;;;;37.25;30.67;;;26.60;99.90;;;;;;5075216;28;20062;-61
2022/05/17 01:16:06;;;;;;;36.88;28.42;;;26.70;99.90;;;;;;5053139;28;20056;-63
2022/05/17 01:18:34;;;;;;;38.35;31.10;;;26.70;99.90;;;;;;5051299;28;20060;-61
2022/05/17 01:21:02;;;;;;;39.42;28.75;;;26.70;99.90;;;;;;5052105;28;20025;-62
2022/05/17 01:23:30;;;;;;;32.28;26.67;;;26.70;99.90;;;;;;5052112;28;20025;-62
2022/05/17 01:25:57;;;;;;;30.50;25.48;;;26.70;99.90;;;;;;5050561;28;20031;-60
2022/05/17 01:28:29;;;;;;;30.02;24.25;;;26.70;99.90;;;;;;5053167;28;20033;-61
2022/05/17 01:31:03;;;;;;;29.92;26.55;;;26.70;99.90;;;;;;5053665;28;20527;-60
2022/05/17 01:33:35;;;;;;;37.53;29.80;;;26.80;99.90;;;;;;5033626;28;20075;-60
2022/05/17 01:36:03;;;;;;;39.17;26.90;;;26.80;99.90;;;;;;5047710;28;20033;-61
2022/05/17 01:38:31;;;;;;;43.97;33.50;;;26.90;99.90;;;;;;5053799;28;20086;-61
2022/05/17 01:40:58;;;;;;;53.15;34.35;;;26.90;99.90;;;;;;5053515;28;20033;-61
2022/05/17 01:43:25;;;;;;;49.55;33.08;;;26.90;99.90;;;;;;5053529;28;20086;-59
2022/05/17 01:45:52;;;;;;;49.75;32.55;;;26.90;99.90;;;;;;5052707;28;20025;-61
2022/05/17 01:48:18;;;;;;;44.33;30.42;;;26.90;99.90;;;;;;5053038;28;20482;-63
2022/05/17 01:50:46;;;;;;;46.05;29.38;;;26.90;99.90;;;;;;5052633;28;20508;-61
2022/05/17 01:53:13;;;;;;;40.08;29.98;;;26.90;99.90;;;;;;5048142;28;20166;-63
2022/05/17 01:55:40;;;;;;;44.03;28.02;;;26.90;99.90;;;;;;5051925;28;20111;-62
2022/05/17 01:58:07;;;;;;;34.55;27.15;;;26.90;99.90;;;;;;5045460;28;20040;-61
2022/05/17 02:00:35;;;;;;;34.15;24.20;;;26.90;99.90;;;;;;5053559;28;20021;-61
2022/05/17 02:03:02;;;;;;;32.60;24.83;;;26.90;99.90;;;;;;5054272;28;20029;-61
2022/05/17 02:05:28;;;;;;;28.95;24.67;;;26.90;99.90;;;;;;5053081;28;20088;-62
2022/05/17 02:07:55;;;;;;;33.03;25.75;;;26.90;99.90;;;;;;5053622;28;20029;-61
2022/05/17 02:10:26;;;;;;;34.88;27.15;;;26.90;99.90;;;;;;5053424;28;20031;-61
2022/05/17 02:12:55;;;;;;;36.03;27.85;;;26.90;99.90;;;;;;5049497;28;20021;-61
2022/05/17 02:15:21;;;;;;;35.30;25.73;;;27.00;99.90;;;;;;5051470;28;20056;-62
2022/05/17 02:17:48;;;;;;;43.80;28.00;;;27.00;99.90;;;;;;5052964;28;20025;-61
2022/05/17 02:20:15;;;;;;;34.20;28.52;;;27.00;99.90;;;;;;5051580;28;20021;-61
2022/05/17 02:22:41;;;;;;;40.83;31.48;;;27.10;99.90;;;;;;5051154;28;20079;-62
2022/05/17 02:25:09;;;;;;;44.25;33.92;;;27.10;99.90;;;;;;5050607;28;20108;-61
2022/05/17 02:27:37;;;;;;;48.25;35.65;;;27.10;99.90;;;;;;5052246;28;20079;-62
2022/05/17 02:30:06;;;;;;;45.15;37.63;;;27.20;99.90;;;;;;5052342;28;20108;-62
2022/05/17 02:32:33;;;;;;;48.78;39.83;;;27.20;99.90;;;;;;5052175;28;20033;-61
2022/05/17 02:34:59;;;;;;;50.38;38.47;;;27.30;99.90;;;;;;5050979;28;20048;-61
2022/05/17 02:37:26;;;;;;;54.20;40.42;;;27.30;99.90;;;;;;5032238;28;20040;-62
2022/05/17 02:39:53;;;;;;;45.60;37.17;;;27.40;99.90;;;;;;5050347;28;20080;-62
2022/05/17 02:42:20;;;;;;;56.35;45.45;;;27.40;99.90;;;;;;5048524;28;20120;-62
2022/05/17 02:44:46;;;;;;;96.13;76.10;;;27.50;99.90;;;;;;5050072;28;20074;-63
2022/05/17 02:47:13;;;;;;;99.25;76.40;;;27.60;99.90;;;;;;5039664;28;20021;-61
2022/05/17 02:49:40;;;;;;;119.80;88.10;;;27.70;99.90;;;;;;5033045;28;20029;-62
2022/05/17 02:52:07;;;;;;;66.43;51.47;;;27.80;99.90;;;;;;5033152;28;20029;-63
2022/05/17 02:54:34;;;;;;;59.35;47.42;;;27.80;99.90;;;;;;5037074;28;20057;-64
2022/05/17 02:57:01;;;;;;;51.95;40.13;;;27.90;99.90;;;;;;5044924;28;20028;-62
2022/05/17 02:59:28;;;;;;;46.05;37.40;;;27.90;99.90;;;;;;5048527;28;20117;-62
2022/05/17 03:01:54;;;;;;;40.53;34.40;;;27.90;99.90;;;;;;5047296;28;20518;-62
2022/05/17 03:04:21;;;;;;;47.13;35.90;;;28.00;99.90;;;;;;5047486;28;20071;-62
2022/05/17 03:06:48;;;;;;;49.80;35.35;;;28.00;99.90;;;;;;5048035;28;20041;-61
2022/05/17 03:09:15;;;;;;;50.33;38.55;;;28.00;99.90;;;;;;5050988;28;20055;-62
2022/05/17 03:11:43;;;;;;;49.53;39.92;;;28.10;99.90;;;;;;5052635;28;20025;-62
2022/05/17 03:14:11;;;;;;;54.38;40.15;;;28.10;99.90;;;;;;5055575;28;20036;-62
2022/05/17 03:16:38;;;;;;;52.85;38.33;;;28.10;99.90;;;;;;5055728;28;20029;-61
2022/05/17 03:19:09;;;;;;;53.08;37.08;;;28.20;99.90;;;;;;5055342;28;20039;-62
2022/05/17 03:21:35;;;;;;;42.25;34.20;;;28.30;99.90;;;;;;5055178;28;20029;-62
2022/05/17 03:24:02;;;;;;;44.25;33.50;;;28.30;99.90;;;;;;5055427;28;20059;-61
2022/05/17 03:26:29;;;;;;;48.95;35.78;;;28.30;99.90;;;;;;5055205;28;20070;-61
2022/05/17 03:28:58;;;;;;;46.75;35.15;;;28.40;99.90;;;;;;5056125;28;20048;-61
2022/05/17 03:31:26;;;;;;;42.67;33.42;;;28.50;99.90;;;;;;5055432;28;20029;-62
2022/05/17 03:33:52;;;;;;;40.65;31.77;;;28.50;99.90;;;;;;5054148;28;20025;-61
2022/05/17 03:36:20;;;;;;;45.47;33.22;;;28.60;99.90;;;;;;5047500;28;20025;-62
2022/05/17 03:38:46;;;;;;;46.88;31.85;;;28.70;99.90;;;;;;5051969;28;20025;-62
2022/05/17 03:41:13;;;;;;;55.78;32.75;;;28.80;99.90;;;;;;5055656;28;20021;-62
2022/05/17 03:43:40;;;;;;;38.38;29.73;;;28.90;99.90;;;;;;5053990;28;20164;-62
2022/05/17 03:46:08;;;;;;;60.42;42.70;;;28.90;99.90;;;;;;5054189;28;20082;-61
2022/05/17 03:48:36;;;;;;;49.80;35.45;;;28.90;99.90;;;;;;5055793;28;20029;-62
2022/05/17 03:51:12;;;;;;;38.30;28.05;;;28.90;99.90;;;;;;5054925;28;20039;-62
2022/05/17 03:53:38;;;;;;;37.35;27.25;;;28.90;99.90;;;;;;5054608;28;20086;-62
2022/05/17 03:56:05;;;;;;;38.20;28.98;;;28.80;99.90;;;;;;5054538;28;20037;-62
2022/05/17 03:58:32;;;;;;;32.67;23.85;;;28.80;99.90;;;;;;5036533;28;20116;-62
2022/05/17 04:00:59;;;;;;;37.88;25.38;;;28.80;99.90;;;;;;5054605;28;20029;-61
2022/05/17 04:03:26;;;;;;;32.85;23.90;;;28.90;99.90;;;;;;5051307;28;20143;-64
2022/05/17 04:05:53;;;;;;;38.17;25.67;;;28.90;99.90;;;;;;5051755;28;20040;-64
2022/05/17 04:08:19;;;;;;;38.10;25.88;;;29.00;99.90;;;;;;5052596;28;20032;-62
2022/05/17 04:10:46;;;;;;;38.30;26.33;;;29.00;99.90;;;;;;5053621;28;20025;-62
2022/05/17 04:13:13;;;;;;;30.08;22.55;;;29.00;99.90;;;;;;5054102;28;20070;-61
2022/05/17 04:15:41;;;;;;;32.53;21.35;;;29.10;99.90;;;;;;5054169;28;20600;-62
2022/05/17 04:18:08;;;;;;;33.03;22.40;;;29.10;99.90;;;;;;5054301;28;20036;-61
2022/05/17 04:20:35;;;;;;;39.13;24.42;;;29.10;99.90;;;;;;5055409;28;20025;-60
2022/05/17 04:23:02;;;;;;;29.25;22.05;;;29.10;99.90;;;;;;5055060;28;20147;-58
2022/05/17 04:25:29;;;;;;;55.80;39.20;;;29.10;99.90;;;;;;5051457;28;20036;-63
2022/05/17 04:27:56;;;;;;;27.35;19.70;;;29.10;99.90;;;;;;5046890;28;20090;-60
2022/05/17 04:30:23;;;;;;;38.17;24.60;;;29.10;99.90;;;;;;5054213;28;20029;-60
2022/05/17 04:32:50;;;;;;;35.42;23.80;;;29.10;99.90;;;;;;5054596;28;20024;-60
2022/05/17 04:35:18;;;;;;;28.40;18.90;;;29.10;99.90;;;;;;5051095;28;20033;-61
2022/05/17 04:37:45;;;;;;;28.90;18.67;;;29.20;99.90;;;;;;5053936;28;20545;-62
2022/05/17 04:40:13;;;;;;;27.25;18.67;;;29.20;99.90;;;;;;5053819;28;20087;-60
2022/05/17 04:42:41;;;;;;;52.35;38.38;;;29.30;99.90;;;;;;5054379;28;20043;-63
2022/05/17 04:45:11;;;;;;;28.88;19.23;;;29.30;99.90;;;;;;5047580;28;20028;-62
2022/05/17 04:47:40;;;;;;;30.35;18.98;;;29.30;99.90;;;;;;5047004;28;20026;-64
2022/05/17 04:50:07;;;;;;;29.92;19.88;;;29.30;99.90;;;;;;5047215;28;20035;-61
2022/05/17 04:52:34;;;;;;;54.40;40.58;;;29.40;99.90;;;;;;5053138;28;20029;-60
2022/05/17 04:55:01;;;;;;;35.50;25.77;;;29.40;99.90;;;;;;5049329;28;20086;-61
2022/05/17 04:57:27;;;;;;;27.23;19.23;;;29.40;99.90;;;;;;5049274;28;20035;-63
2022/05/17 04:59:59;;;;;;;24.55;19.13;;;29.50;99.90;;;;;;5047177;28;20166;-62
2022/05/17 05:02:26;;;;;;;30.98;19.88;;;29.50;99.90;;;;;;5052669;28;20057;-63
2022/05/17 05:04:52;;;;;;;23.83;20.35;;;29.60;99.90;;;;;;5051697;28;20382;-62
2022/05/17 05:07:22;;;;;;;28.40;20.77;;;29.60;99.90;;;;;;5048073;28;20037;-61
2022/05/17 05:09:49;;;;;;;27.77;21.65;;;29.60;99.90;;;;;;5052334;28;20206;-60
2022/05/17 05:12:15;;;;;;;29.70;21.38;;;29.70;99.90;;;;;;5053396;28;20025;-62
2022/05/17 05:14:42;;;;;;;27.55;20.15;;;29.80;99.90;;;;;;5054011;28;20098;-59
2022/05/17 05:17:09;;;;;;;32.28;22.05;;;29.80;99.90;;;;;;5054073;28;20105;-63
2022/05/17 05:19:36;;;;;;;28.08;20.80;;;29.90;99.90;;;;;;5054214;28;20040;-64
2022/05/17 05:22:03;;;;;;;23.65;18.80;;;30.00;99.90;;;;;;5052398;28;20107;-68
2022/05/17 05:24:31;;;;;;;29.13;20.05;;;30.00;99.90;;;;;;5047391;28;20025;-67
2022/05/17 05:26:58;;;;;;;30.27;19.67;;;30.10;99.90;;;;;;5049448;28;20031;-66
2022/05/17 05:29:25;;;;;;;24.60;20.35;;;30.10;99.90;;;;;;5051468;28;20063;-67
2022/05/17 05:31:52;;;;;;;27.77;18.05;;;30.10;99.90;;;;;;5053538;28;20020;-66
2022/05/17 05:34:20;;;;;;;22.50;18.15;;;30.10;99.90;;;;;;5053671;28;20127;-66
2022/05/17 05:36:46;;;;;;;28.85;18.00;;;30.10;99.90;;;;;;5052287;28;20036;-66
2022/05/17 05:39:16;;;;;;;27.95;19.63;;;30.10;99.90;;;;;;5049888;28;20025;-66
2022/05/17 05:41:44;;;;;;;31.38;22.15;;;30.20;99.90;;;;;;5049275;28;20377;-66
2022/05/17 05:44:13;;;;;;;26.13;18.05;;;30.30;99.90;;;;;;5051083;28;20405;-65
2022/05/17 05:46:40;;;;;;;20.45;15.52;;;30.30;99.90;;;;;;5049119;28;20060;-65
2022/05/17 05:49:07;;;;;;;18.65;15.20;;;30.40;99.90;;;;;;5053079;28;20485;-66
2022/05/17 05:51:34;;;;;;;32.15;25.50;;;30.50;99.90;;;;;;5046712;28;20029;-64
2022/05/17 05:54:00;;;;;;;30.45;21.08;;;30.50;99.90;;;;;;5052447;28;20098;-65
2022/05/17 05:56:27;;;;;;;19.63;15.68;;;30.60;99.90;;;;;;5052988;28;20386;-65
2022/05/17 05:58:54;;;;;;;23.50;15.38;;;30.60;99.90;;;;;;5049965;28;20362;-67
2022/05/17 06:01:20;;;;;;;18.95;14.55;;;30.70;99.90;;;;;;5052231;28;20033;-67
2022/05/17 06:03:47;;;;;;;20.30;14.68;;;30.70;99.90;;;;;;5051026;28;20017;-66
2022/05/17 06:06:16;;;;;;;23.08;14.98;;;30.70;99.90;;;;;;5051826;28;20542;-69
2022/05/17 06:08:43;;;;;;;18.10;14.30;;;30.70;99.90;;;;;;5048515;28;20029;-61
2022/05/17 06:11:10;;;;;;;17.60;14.75;;;30.70;99.90;;;;;;5050753;28;20029;-62
2022/05/17 06:13:37;;;;;;;19.75;13.88;;;30.70;99.90;;;;;;5044635;28;20070;-62
2022/05/17 06:16:04;;;;;;;16.08;13.60;;;30.60;99.90;;;;;;5052361;28;20428;-62
2022/05/17 06:18:31;;;;;;;15.05;12.27;;;30.60;99.90;;;;;;5051924;28;20025;-63
2022/05/17 06:21:01;;;;;;;17.60;12.65;;;30.60;99.90;;;;;;5051223;28;20053;-61
2022/05/17 06:23:28;;;;;;;17.48;13.48;;;30.60;99.90;;;;;;5051100;28;20030;-64
2022/05/17 06:25:55;;;;;;;23.42;16.00;;;30.60;99.90;;;;;;5051925;28;20363;-63
2022/05/17 06:28:21;;;;;;;20.58;15.63;;;30.60;99.90;;;;;;5049754;28;20047;-63
2022/05/17 06:30:48;;;;;;;16.33;13.27;;;30.60;99.90;;;;;;5049414;28;20475;-62
2022/05/17 06:33:15;;;;;;;15.77;14.07;;;30.60;99.90;;;;;;5051701;28;20115;-63
2022/05/17 06:35:44;;;;;;;16.70;13.38;;;30.50;99.90;;;;;;5049954;28;20033;-62
2022/05/17 06:38:12;;;;;;;20.33;14.35;;;30.50;99.90;;;;;;5053104;28;20139;-62
2022/05/17 06:40:39;;;;;;;26.65;16.58;;;30.50;99.90;;;;;;5052254;28;20025;-63
2022/05/17 06:43:06;;;;;;;17.55;13.60;;;30.60;99.90;;;;;;5052823;28;20020;-63
2022/05/17 06:45:33;;;;;;;22.88;13.07;;;30.60;99.90;;;;;;5050400;28;20470;-62
2022/05/17 06:48:01;;;;;;;18.42;13.27;;;30.60;99.90;;;;;;5055295;28;20518;-62
2022/05/17 06:50:28;;;;;;;24.83;14.32;;;30.70;99.90;;;;;;5056216;28;20039;-63
2022/05/17 06:52:55;;;;;;;20.38;15.25;;;30.80;99.90;;;;;;5054559;28;20057;-63
2022/05/17 06:55:22;;;;;;;24.70;14.80;;;30.80;99.90;;;;;;5054885;28;20504;-63
2022/05/17 06:57:50;;;;;;;21.25;14.55;;;30.90;99.90;;;;;;5056627;28;20029;-63
2022/05/17 07:00:19;;;;;;;20.55;14.48;;;31.00;99.90;;;;;;5056763;28;20082;-64
2022/05/17 07:02:46;;;;;;;18.92;13.98;;;31.00;99.90;;;;;;5055754;28;20560;-63
2022/05/17 07:05:13;;;;;;;20.10;14.23;;;31.10;99.90;;;;;;5055746;28;20292;-63
2022/05/17 07:07:40;;;;;;;22.05;15.65;;;31.20;99.90;;;;;;5054180;28;20084;-63
2022/05/17 07:15:45;;;;;;;23.63;16.60;;;31.40;99.90;;;;;;5066311;28;20440;-62
2022/05/17 07:18:14;;;;;;;26.58;14.07;;;31.40;99.90;;;;;;5054272;28;20112;-62
2022/05/17 07:20:41;;;;;;;16.20;11.98;;;31.30;99.90;;;;;;5059925;28;20029;-62
2022/05/17 07:23:09;;;;;;;15.45;12.40;;;31.30;99.90;;;;;;5057205;28;20020;-61
2022/05/17 07:25:37;;;;;;;19.38;12.65;;;31.30;99.90;;;;;;5058863;28;20143;-61
2022/05/17 07:28:04;;;;;;;19.20;13.65;;;31.30;99.90;;;;;;5057984;28;20154;-62
2022/05/17 07:30:30;;;;;;;15.63;12.65;;;31.40;99.90;;;;;;5058355;28;20124;-62
2022/05/17 07:32:57;;;;;;;19.52;12.38;;;31.40;99.90;;;;;;5056863;28;20025;-62
2022/05/17 07:35:24;;;;;;;17.63;12.07;;;31.50;99.90;;;;;;5058276;28;20036;-63
2022/05/17 07:37:51;;;;;;;21.33;12.75;;;31.50;99.90;;;;;;5057964;28;20128;-63
2022/05/17 07:40:19;;;;;;;19.40;13.85;;;31.60;99.90;;;;;;5058066;28;20061;-61
2022/05/17 07:42:46;;;;;;;16.52;13.32;;;31.50;99.90;;;;;;5058650;28;20028;-61
2022/05/17 07:45:14;;;;;;;21.55;12.77;;;31.50;99.90;;;;;;5058106;28;20032;-63
2022/05/17 07:47:41;;;;;;;18.40;13.00;;;31.50;99.90;;;;;;5057879;28;20029;-62
2022/05/17 07:50:08;;;;;;;15.70;12.90;;;31.60;99.90;;;;;;5057058;28;20363;-61
2022/05/17 07:52:35;;;;;;;42.28;29.00;;;31.60;99.90;;;;;;5055463;28;20028;-61
2022/05/17 07:55:02;;;;;;;17.83;13.68;;;31.60;99.90;;;;;;5057484;28;20067;-62
2022/05/17 07:57:29;;;;;;;19.77;13.32;;;31.60;99.90;;;;;;5057472;28;20409;-61
2022/05/17 07:59:56;;;;;;;22.73;16.13;;;31.60;99.90;;;;;;5057270;28;20492;-61
2022/05/17 08:02:22;;;;;;;37.30;21.75;;;31.60;99.90;;;;;;5055149;28;20289;-62
2022/05/17 08:04:50;;;;;;;25.77;16.73;;;31.60;99.90;;;;;;5055654;28;20017;-62
2022/05/17 08:07:17;;;;;;;46.58;33.70;;;31.60;99.90;;;;;;5058534;28;20041;-62
2022/05/17 08:09:43;;;;;;;30.35;22.02;;;31.60;99.90;;;;;;5055432;28;20021;-62
2022/05/17 08:12:10;;;;;;;17.60;13.13;;;31.60;99.90;;;;;;5054264;28;20029;-62
2022/05/17 08:14:39;;;;;;;22.23;14.27;;;31.70;99.90;;;;;;5058180;28;20036;-61
2022/05/17 08:17:08;;;;;;;22.20;13.90;;;31.70;99.90;;;;;;5057922;28;20029;-63
2022/05/17 08:19:36;;;;;;;19.17;13.63;;;31.80;99.90;;;;;;5058049;28;20424;-62
2022/05/17 08:22:05;;;;;;;19.55;14.52;;;31.80;99.90;;;;;;5047322;28;20033;-61
2022/05/17 08:27:31;;;;;;;23.77;13.55;;;31.90;99.90;;;;;;5054100;28;20171;-62
2022/05/17 08:30:15;;;;;;;19.55;13.98;;;31.80;99.90;;;;;;5058113;28;20336;-61
2022/05/17 08:35:49;;;;;;;18.92;12.32;;;31.70;99.90;;;;;;5056426;28;20036;-61
2022/05/17 08:38:23;;;;;;;18.75;15.18;;;31.70;99.90;;;;;;5056540;28;20036;-61
2022/05/17 08:41:05;;;;;;;18.38;13.88;;;31.70;99.90;;;;;;5039536;28;20036;-61
2022/05/17 08:43:35;;;;;;;20.95;14.05;;;31.70;99.90;;;;;;5057489;28;20017;-61
2022/05/17 08:46:05;;;;;;;17.92;13.98;;;31.70;99.90;;;;;;5055236;28;20028;-62
2022/05/17 08:48:43;;;;;;;17.73;14.25;;;31.70;99.90;;;;;;5037339;28;20026;-61
2022/05/17 08:51:14;;;;;;;23.05;16.25;;;31.70;99.90;;;;;;5036293;28;20383;-62
2022/05/17 08:53:43;;;;;;;21.90;16.17;;;31.60;99.90;;;;;;5037359;28;20155;-62
2022/05/17 08:56:10;;;;;;;22.45;15.27;;;31.60;99.90;;;;;;5052436;28;20024;-61
2022/05/17 08:58:39;;;;;;;22.20;15.73;;;31.50;99.90;;;;;;5057625;28;20048;-61
2022/05/17 09:01:19;;;;;;;17.17;15.27;;;31.50;99.90;;;;;;5057802;28;20034;-62
2022/05/17 09:04:05;;;;;;;51.95;43.80;;;31.50;99.90;;;;;;5057011;28;20024;-62
2022/05/17 09:06:32;;;;;;;29.10;21.80;;;31.60;99.90;;;;;;5053804;28;20124;-61
2022/05/17 09:09:22;;;;;;;21.25;17.58;;;31.60;99.90;;;;;;5054486;28;20572;-61
2022/05/17 09:11:51;;;;;;;17.50;15.57;;;31.60;99.90;;;;;;5051267;28;20032;-64
2022/05/17 09:14:20;;;;;;;21.52;15.07;;;31.60;99.90;;;;;;5048151;28;20025;-62
2022/05/17 09:17:13;;;;;;;20.48;14.63;;;31.60;99.90;;;;;;5054618;28;20492;-61
2022/05/17 09:19:40;;;;;;;19.70;14.20;;;31.60;99.90;;;;;;5053838;28;20020;-61
2022/05/17 09:22:07;;;;;;;25.05;21.50;;;31.60;99.90;;;;;;5050230;28;20028;-60
2022/05/17 09:24:41;;;;;;;28.02;19.13;;;31.60;99.90;;;;;;5052088;28;20035;-61
2022/05/17 09:27:12;;;;;;;24.30;14.50;;;31.60;99.90;;;;;;5047930;28;20028;-62
2022/05/17 09:29:46;;;;;;;18.58;14.45;;;31.60;99.90;;;;;;5054570;28;20374;-62
2022/05/17 09:32:24;;;;;;;18.50;15.50;;;31.60;99.90;;;;;;5052947;28;20024;-62
2022/05/17 09:35:16;;;;;;;17.50;14.15;;;31.60;99.90;;;;;;5052846;28;20028;-60
2022/05/17 09:37:53;;;;;;;22.27;16.25;;;31.60;99.90;;;;;;5049884;28;20485;-62
2022/05/17 09:40:28;;;;;;;19.30;14.50;;;31.60;99.90;;;;;;5052368;28;20056;-60
2022/05/17 09:43:05;;;;;;;23.55;14.57;;;31.70;99.90;;;;;;5051143;28;20071;-62
2022/05/17 09:45:58;;;;;;;21.33;13.85;;;31.70;99.90;;;;;;5054854;28;20282;-62
2022/05/17 09:48:32;;;;;;;18.45;14.30;;;31.60;99.90;;;;;;5052276;28;20112;-63
2022/05/17 09:53:45;;;;;;;18.85;13.00;;;31.60;99.90;;;;;;5052582;28;20033;-62
2022/05/17 09:56:13;;;;;;;20.90;13.98;;;31.60;99.90;;;;;;5053499;28;20032;-63
2022/05/17 09:58:45;;;;;;;17.27;13.43;;;31.60;99.90;;;;;;5052459;28;20538;-62
2022/05/17 10:01:17;;;;;;;22.83;15.43;;;31.50;99.90;;;;;;5052300;28;20032;-63
2022/05/17 10:04:01;;;;;;;22.13;15.90;;;31.50;99.90;;;;;;5052966;28;20105;-63
2022/05/17 10:06:41;;;;;;;23.30;16.10;;;31.50;99.90;;;;;;5050345;28;20041;-63
2022/05/17 10:09:12;;;;;;;22.55;17.77;;;31.50;99.90;;;;;;5053327;28;20099;-62
2022/05/17 10:12:13;;;;;;;25.98;16.75;;;31.50;99.90;;;;;;5050055;28;20390;-62
2022/05/17 10:14:47;;;;;;;24.67;17.58;;;31.50;99.90;;;;;;4969841;28;20062;-62
2022/05/17 10:17:28;;;;;;;444.27;344.67;;;31.40;99.90;;;;;;4965770;28;20030;-62
2022/05/17 10:20:01;;;;;;;321.83;269.17;;;31.30;99.90;;;;;;4970661;28;20034;-62
2022/05/17 10:22:48;;;;;;;298.60;267.35;;;31.30;99.90;;;;;;4972108;28;20783;-62
2022/05/17 10:25:16;;;;;;;691.97;577.63;;;31.30;99.90;;;;;;4964268;28;20042;-63
2022/05/17 10:27:50;;;;;;;533.30;445.30;;;31.30;99.90;;;;;;4966311;28;20039;-62
2022/05/17 10:30:22;;;;;;;165.55;133.98;;;31.30;99.90;;;;;;4969016;28;20543;-62
2022/05/17 10:32:57;;;;;;;117.07;98.82;;;31.30;99.90;;;;;;4966558;28;20584;-61
2022/05/17 10:35:36;;;;;;;232.45;142.82;;;31.40;99.90;;;;;;4969178;28;20031;-62
2022/05/17 10:38:28;;;;;;;390.58;194.90;;;31.40;99.90;;;;;;4968030;28;20468;-62
2022/05/17 10:40:55;;;;;;;157.02;75.53;;;31.30;99.90;;;;;;4963694;28;20483;-61
2022/05/17 10:43:29;;;;;;;120.97;60.45;;;31.30;99.90;;;;;;4964145;28;20073;-62
2022/05/17 10:46:19;;;;;;;202.02;102.35;;;31.20;99.90;;;;;;5039883;28;20041;-61
2022/05/17 10:49:06;;;;;;;359.10;225.27;;;31.20;99.90;;;;;;5048151;28;20033;-63
2022/05/17 10:51:53;;;;;;;559.65;298.90;;;31.20;99.90;;;;;;5051205;28;20040;-62
2022/05/17 10:54:39;;;;;;;449.85;225.00;;;31.10;99.90;;;;;;5052710;28;20083;-62
2022/05/17 10:57:25;;;;;;;119.95;62.58;;;31.10;99.90;;;;;;5053738;28;20037;-62
2022/05/17 11:00:21;;;;;;;585.65;418.20;;;31.10;99.90;;;;;;5050938;28;20496;-61
2022/05/17 11:03:10;;;;;;;343.45;223.98;;;31.00;99.90;;;;;;5052584;28;20353;-60
2022/05/17 11:05:50;;;;;;;278.60;178.43;;;31.00;99.90;;;;;;5037251;28;20040;-58
2022/05/17 11:08:37;;;;;;;468.50;278.90;;;31.00;99.90;;;;;;5043334;28;20090;-60
2022/05/17 11:11:28;;;;;;;490.80;246.77;;;31.00;99.90;;;;;;5045899;28;20025;-60
2022/05/17 11:13:59;;;;;;;672.00;341.05;;;31.00;99.90;;;;;;5053297;28;20032;-61
2022/05/17 11:16:37;;;;;;;614.88;302.77;;;31.00;99.90;;;;;;5051919;28;20071;-61
2022/05/17 11:19:08;;;;;;;269.10;121.38;;;31.00;99.90;;;;;;5053358;28;20063;-61
2022/05/17 11:21:48;;;;;;;71.93;38.70;;;30.90;99.90;;;;;;5052451;28;20036;-62
2022/05/17 11:24:25;;;;;;;60.78;38.10;;;30.90;99.90;;;;;;5052552;28;20025;-61
2022/05/17 11:27:32;;;;;;;51.65;33.53;;;30.90;99.90;;;;;;5032886;28;20032;-61
2022/05/17 11:30:00;;;;;;;61.17;40.90;;;30.80;99.90;;;;;;5051043;28;20029;-61
2022/05/17 11:32:32;;;;;;;45.78;33.15;;;30.80;99.90;;;;;;5044252;28;20549;-61
2022/05/17 11:35:02;;;;;;;47.40;34.33;;;30.80;99.90;;;;;;5052806;28;20047;-61
2022/05/17 11:37:33;;;;;;;46.53;30.98;;;30.80;99.90;;;;;;5055639;28;20478;-61
2022/05/17 11:40:04;;;;;;;50.42;29.85;;;30.80;99.90;;;;;;5055842;28;20112;-60
2022/05/17 11:42:33;;;;;;;43.60;32.15;;;30.80;99.90;;;;;;5053610;28;20212;-63
2022/05/17 11:45:21;;;;;;;52.15;34.88;;;30.80;99.90;;;;;;5047010;28;20112;-60
2022/05/17 11:47:56;;;;;;;47.33;33.95;;;30.80;99.90;;;;;;5041908;28;20390;-60
2022/05/17 11:51:03;;;;;;;49.50;33.05;;;30.80;99.90;;;;;;5059461;28;20096;-64
2022/05/17 11:53:40;;;;;;;48.15;31.67;;;30.80;99.90;;;;;;4962912;28;20398;-62
2022/05/17 11:56:28;;;;;;;82.93;63.15;;;30.80;99.90;;;;;;4955393;28;20043;-61
2022/05/17 11:59:16;;;;;;;97.63;68.60;;;30.70;99.90;;;;;;4954399;28;20066;-63
2022/05/17 12:01:45;;;;;;;64.30;45.80;;;30.70;99.90;;;;;;4909855;29;20410;-63
2022/05/17 12:04:21;;;;;;;69.40;45.55;;;30.70;99.90;;;;;;4911392;29;20040;-62
2022/05/17 12:06:48;;;;;;;54.83;39.50;;;30.70;99.90;;;;;;4907112;29;20044;-65
2022/05/17 12:09:25;;;;;;;71.03;52.58;;;30.70;99.90;;;;;;4910427;29;20119;-63
2022/05/17 12:12:23;;;;;;;59.72;46.05;;;30.60;99.90;;;;;;4915129;29;20390;-62
2022/05/17 12:15:00;;;;;;;90.60;65.53;;;30.60;99.90;;;;;;4914390;29;20054;-62
2022/05/17 12:17:35;;;;;;;80.60;55.60;;;30.50;99.90;;;;;;4915460;29;20052;-61
2022/05/17 12:20:14;;;;;;;91.70;65.55;;;30.50;99.90;;;;;;4915050;29;20033;-61
2022/05/17 12:23:06;;;;;;;75.05;51.25;;;30.60;99.90;;;;;;4918392;28;20043;-61
2022/05/17 12:25:46;;;;;;;86.05;54.38;;;30.50;99.90;;;;;;5002580;28;20478;-62
2022/05/17 12:28:22;;;;;;;88.43;63.95;;;30.50;99.90;;;;;;5006687;28;20598;-61
2022/05/17 12:30:54;;;;;;;83.32;56.70;;;30.50;99.90;;;;;;5005217;28;20427;-62
2022/05/17 12:33:23;;;;;;;105.43;69.80;;;30.50;99.90;;;;;;5007507;28;20125;-61
2022/05/17 12:35:51;;;;;;;95.63;69.88;;;30.50;99.90;;;;;;5012932;28;20029;-61
2022/05/17 12:44:20;;;;;;;76.85;50.67;;;30.40;99.90;;;;;;5048402;28;20400;-61
2022/05/17 12:46:49;;;;;;;66.87;44.47;;;30.30;99.90;;;;;;5052568;28;20023;-64
2022/05/17 12:49:23;;;;;;;67.43;43.00;;;30.30;99.90;;;;;;5053309;28;20021;-62
2022/05/17 12:51:54;;;;;;;65.40;43.30;;;30.20;99.90;;;;;;5050148;28;20039;-67
2022/05/17 12:54:27;;;;;;;70.93;48.75;;;30.20;99.90;;;;;;5052556;28;20036;-62
2022/05/17 12:56:54;;;;;;;69.32;46.08;;;30.20;99.90;;;;;;5046516;28;20032;-61
2022/05/17 12:59:30;;;;;;;67.68;48.17;;;30.10;99.90;;;;;;5052924;28;20044;-62
2022/05/17 13:02:00;;;;;;;71.95;49.60;;;30.10;99.90;;;;;;5051318;28;20061;-60
2022/05/17 13:04:39;;;;;;;89.95;58.33;;;30.10;99.90;;;;;;5053685;28;20013;-61
2022/05/17 13:07:13;;;;;;;95.70;61.90;;;30.10;99.90;;;;;;5051175;28;20122;-62